createdAt,value
2019-03-16T00:00:35.555Z,0.00
2019-03-16T00:01:35.545Z,0.00
2019-03-16T00:02:35.545Z,0.00
2019-03-16T00:03:35.526Z,0.00
2019-03-16T00:05:35.571Z,0.00
2019-03-16T00:06:35.486Z,0.00
2019-03-16T00:07:35.531Z,0.00
2019-03-16T00:08:35.475Z,0.00
2019-03-16T00:09:35.477Z,0.00
2019-03-16T00:10:35.447Z,0.00
2019-03-16T00:11:35.473Z,0.00
2019-03-16T00:12:35.430Z,0.00
2019-03-16T00:13:35.430Z,0.00
2019-03-16T00:14:35.427Z,0.00
2019-03-16T00:15:35.403Z,0.00
2019-03-16T00:16:35.412Z,0.00
2019-03-16T00:17:35.378Z,0.00
2019-03-16T00:18:35.372Z,0.00
2019-03-16T00:19:35.350Z,0.00
2019-03-16T00:20:35.334Z,0.00
2019-03-16T00:21:35.367Z,0.00
2019-03-16T00:22:35.317Z,0.00
2019-03-16T00:23:35.297Z,0.00
2019-03-16T00:24:35.506Z,0.00
2019-03-16T00:25:35.291Z,0.00
2019-03-16T00:26:35.307Z,0.00
2019-03-16T00:27:35.274Z,0.00
2019-03-16T00:28:35.254Z,0.00
2019-03-16T00:29:35.246Z,0.00
2019-03-16T00:30:35.234Z,0.00
2019-03-16T00:31:35.225Z,0.00
2019-03-16T00:32:35.338Z,0.00
2019-03-16T00:33:35.210Z,0.00
2019-03-16T00:34:35.188Z,0.00
2019-03-16T00:35:35.172Z,0.00
2019-03-16T00:36:35.208Z,0.00
2019-03-16T00:37:35.160Z,0.00
2019-03-16T00:38:35.156Z,0.00
2019-03-16T00:39:35.128Z,0.00
2019-03-16T00:40:35.126Z,0.00
2019-03-16T00:41:35.120Z,0.00
2019-03-16T00:42:35.129Z,0.00
2019-03-16T00:43:35.107Z,0.00
2019-03-16T00:44:35.079Z,0.00
2019-03-16T00:45:35.065Z,0.00
2019-03-16T00:46:35.107Z,0.00
2019-03-16T00:47:35.036Z,0.00
2019-03-16T00:48:35.048Z,0.00
2019-03-16T00:49:35.043Z,0.00
2019-03-16T00:50:35.010Z,0.00
2019-03-16T00:51:35.038Z,0.00
2019-03-16T00:52:34.996Z,0.00
2019-03-16T00:53:34.982Z,0.00
2019-03-16T00:54:34.986Z,0.00
2019-03-16T00:55:34.974Z,0.00
2019-03-16T00:56:34.956Z,0.00
2019-03-16T00:57:34.965Z,0.00
2019-03-16T00:58:34.934Z,0.00
2019-03-16T00:59:34.966Z,0.00
2019-03-16T01:00:34.921Z,0.00
2019-03-16T01:01:34.911Z,0.00
2019-03-16T01:02:34.890Z,0.00
2019-03-16T01:03:34.876Z,0.00
2019-03-16T01:04:34.856Z,0.00
2019-03-16T01:05:34.902Z,0.00
2019-03-16T01:06:34.851Z,0.00
2019-03-16T01:07:34.836Z,0.00
2019-03-16T01:08:34.838Z,0.00
2019-03-16T01:09:34.836Z,0.00
2019-03-16T01:10:34.806Z,0.00
2019-03-16T01:11:34.825Z,0.00
2019-03-16T01:12:34.789Z,0.00
2019-03-16T01:13:34.783Z,0.00
2019-03-16T01:14:34.772Z,0.00
2019-03-16T01:15:34.738Z,0.00
2019-03-16T01:16:34.791Z,0.00
2019-03-16T01:17:34.734Z,0.00
2019-03-16T01:18:34.703Z,0.00
2019-03-16T01:19:34.713Z,0.00
2019-03-16T01:20:34.707Z,0.00
2019-03-16T01:21:34.702Z,0.00
2019-03-16T01:22:34.719Z,0.00
2019-03-16T01:23:34.661Z,0.00
2019-03-16T01:24:34.658Z,0.00
2019-03-16T01:25:34.630Z,0.00
2019-03-16T01:26:34.639Z,0.00
2019-03-16T01:27:34.627Z,0.00
2019-03-16T01:28:34.657Z,0.00
2019-03-16T01:29:34.588Z,0.00
2019-03-16T01:30:34.575Z,0.00
2019-03-16T01:31:34.585Z,0.00
2019-03-16T01:32:40.510Z,0.00
2019-03-16T01:33:35.592Z,0.00
2019-03-16T01:34:34.539Z,0.00
2019-03-16T01:35:34.529Z,0.00
2019-03-16T01:36:34.557Z,0.00
2019-03-16T01:37:34.521Z,0.00
2019-03-16T01:38:34.491Z,0.00
2019-03-16T01:39:34.480Z,0.00
2019-03-16T01:40:34.474Z,0.00
2019-03-16T01:41:34.470Z,0.00
2019-03-16T01:42:34.501Z,0.00
2019-03-16T01:43:34.460Z,0.00
2019-03-16T01:44:34.422Z,0.00
2019-03-16T01:45:34.412Z,0.00
2019-03-16T01:46:34.424Z,0.00
2019-03-16T01:47:34.392Z,0.00
2019-03-16T01:48:34.430Z,0.00
2019-03-16T01:49:34.413Z,0.00
2019-03-16T01:50:34.371Z,0.00
2019-03-16T01:51:34.354Z,0.00
2019-03-16T01:52:34.341Z,0.00
2019-03-16T01:53:34.368Z,0.00
2019-03-16T01:54:34.317Z,0.00
2019-03-16T01:55:34.328Z,0.00
2019-03-16T01:56:34.335Z,0.00
2019-03-16T01:57:34.303Z,0.00
2019-03-16T01:58:34.331Z,0.00
2019-03-16T01:59:34.264Z,0.00
2019-03-16T02:00:34.275Z,0.00
2019-03-16T02:01:34.256Z,0.00
2019-03-16T02:02:34.264Z,0.00
2019-03-16T02:03:34.242Z,0.00
2019-03-16T02:04:34.277Z,0.00
2019-03-16T02:05:34.209Z,0.00
2019-03-16T02:06:34.205Z,0.00
2019-03-16T02:07:34.198Z,0.00
2019-03-16T02:08:34.194Z,0.00
2019-03-16T02:09:34.173Z,0.00
2019-03-16T02:10:34.179Z,0.00
2019-03-16T02:11:34.151Z,0.00
2019-03-16T02:12:34.121Z,0.00
2019-03-16T02:13:34.144Z,0.00
2019-03-16T02:14:34.112Z,0.00
2019-03-16T02:15:34.137Z,0.00
2019-03-16T02:16:34.104Z,0.00
2019-03-16T02:17:34.071Z,0.00
2019-03-16T02:18:34.115Z,0.00
2019-03-16T02:19:35.952Z,0.00
2019-03-16T02:20:34.053Z,0.00
2019-03-16T02:21:34.186Z,0.00
2019-03-16T02:22:34.038Z,0.00
2019-03-16T02:23:34.009Z,0.00
2019-03-16T02:24:34.035Z,0.00
2019-03-16T02:25:33.998Z,0.00
2019-03-16T02:26:33.990Z,0.00
2019-03-16T02:27:33.966Z,0.00
2019-03-16T02:28:33.965Z,0.00
2019-03-16T02:29:33.954Z,0.00
2019-03-16T02:30:33.972Z,0.00
2019-03-16T02:31:33.938Z,0.00
2019-03-16T02:32:33.913Z,0.00
2019-03-16T02:33:33.913Z,0.00
2019-03-16T02:34:33.903Z,0.00
2019-03-16T02:35:33.892Z,0.00
2019-03-16T02:36:33.904Z,0.00
2019-03-16T02:37:33.870Z,0.00
2019-03-16T02:38:33.860Z,0.00
2019-03-16T02:39:33.834Z,0.00
2019-03-16T02:40:33.825Z,0.00
2019-03-16T02:41:33.879Z,0.00
2019-03-16T02:42:33.805Z,0.00
2019-03-16T02:43:33.821Z,0.00
2019-03-16T02:44:33.791Z,0.00
2019-03-16T02:45:33.831Z,0.00
2019-03-16T02:46:33.804Z,0.00
2019-03-16T02:47:33.770Z,0.00
2019-03-16T02:48:33.742Z,0.00
2019-03-16T02:49:33.727Z,0.00
2019-03-16T02:50:33.714Z,0.00
2019-03-16T02:51:33.707Z,0.00
2019-03-16T02:52:33.748Z,0.00
2019-03-16T02:53:33.701Z,0.00
2019-03-16T02:54:33.679Z,0.00
2019-03-16T02:55:33.674Z,0.00
2019-03-16T02:56:33.671Z,0.00
2019-03-16T02:57:33.650Z,0.00
2019-03-16T02:58:33.662Z,0.00
2019-03-16T02:59:33.618Z,0.00
2019-03-16T03:00:33.744Z,0.00
2019-03-16T03:01:33.613Z,0.00
2019-03-16T03:02:33.593Z,0.00
2019-03-16T03:03:33.626Z,0.00
2019-03-16T03:04:33.569Z,0.00
2019-03-16T03:05:33.554Z,0.00
2019-03-16T03:06:33.577Z,0.00
2019-03-16T03:07:33.536Z,0.00
2019-03-16T03:08:33.528Z,0.00
2019-03-16T03:09:33.512Z,0.00
2019-03-16T03:10:33.502Z,0.00
2019-03-16T03:11:33.495Z,0.00
2019-03-16T03:12:33.514Z,0.00
2019-03-16T03:13:33.486Z,0.00
2019-03-16T03:14:33.496Z,0.00
2019-03-16T03:15:33.558Z,0.00
2019-03-16T03:16:33.440Z,0.00
2019-03-16T03:17:33.428Z,0.00
2019-03-16T03:18:33.457Z,0.00
2019-03-16T03:19:33.409Z,0.00
2019-03-16T03:20:33.396Z,0.00
2019-03-16T03:21:33.383Z,0.00
2019-03-16T03:22:33.374Z,0.00
2019-03-16T03:23:33.371Z,0.00
2019-03-16T03:24:33.386Z,0.00
2019-03-16T03:25:33.362Z,0.00
2019-03-16T03:26:33.338Z,0.00
2019-03-16T03:27:33.319Z,0.00
2019-03-16T03:28:33.303Z,0.00
2019-03-16T03:29:33.333Z,0.00
2019-03-16T03:30:33.321Z,0.00
2019-03-16T03:31:33.289Z,0.00
2019-03-16T03:32:33.277Z,0.00
2019-03-16T03:33:57.225Z,0.00
2019-03-16T03:34:34.284Z,0.00
2019-03-16T03:35:33.242Z,0.00
2019-03-16T03:36:33.228Z,0.00
2019-03-16T03:37:33.213Z,0.00
2019-03-16T03:38:33.206Z,0.00
2019-03-16T03:39:33.230Z,0.00
2019-03-16T03:40:33.198Z,0.00
2019-03-16T03:41:33.200Z,0.00
2019-03-16T03:42:33.158Z,0.00
2019-03-16T03:43:33.148Z,0.00
2019-03-16T03:44:33.154Z,0.00
2019-03-16T03:45:33.170Z,0.00
2019-03-16T03:46:33.125Z,0.00
2019-03-16T03:47:33.122Z,0.00
2019-03-16T03:48:33.100Z,0.00
2019-03-16T03:49:33.084Z,0.00
2019-03-16T03:50:33.093Z,0.00
2019-03-16T03:51:33.184Z,0.00
2019-03-16T03:52:33.050Z,0.00
2019-03-16T03:53:33.054Z,0.00
2019-03-16T03:54:33.027Z,0.00
2019-03-16T03:55:33.023Z,0.00
2019-03-16T03:56:33.009Z,0.00
2019-03-16T03:57:33.033Z,0.00
2019-03-16T03:58:32.984Z,0.00
2019-03-16T03:59:32.994Z,0.00
2019-03-16T04:00:32.973Z,0.00
2019-03-16T04:01:32.961Z,0.00
2019-03-16T04:02:32.956Z,0.00
2019-03-16T04:03:32.972Z,0.00
2019-03-16T04:04:32.926Z,0.00
2019-03-16T04:05:32.911Z,0.00
2019-03-16T04:06:32.902Z,0.00
2019-03-16T04:07:32.898Z,0.00
2019-03-16T04:08:32.896Z,0.00
2019-03-16T04:09:32.905Z,0.00
2019-03-16T04:10:32.859Z,0.00
2019-03-16T04:11:32.861Z,0.00
2019-03-16T04:12:32.840Z,0.00
2019-03-16T04:13:32.827Z,0.00
2019-03-16T04:14:32.822Z,0.00
2019-03-16T04:15:32.854Z,0.00
2019-03-16T04:16:32.803Z,0.00
2019-03-16T04:17:32.795Z,0.00
2019-03-16T04:18:32.782Z,0.00
2019-03-16T04:19:32.764Z,0.00
2019-03-16T04:20:32.795Z,0.00
2019-03-16T04:21:32.741Z,0.00
2019-03-16T04:22:32.737Z,0.00
2019-03-16T04:23:32.729Z,0.00
2019-03-16T04:24:32.725Z,0.00
2019-03-16T04:25:32.703Z,0.00
2019-03-16T04:26:32.741Z,0.00
2019-03-16T04:27:32.680Z,0.00
2019-03-16T04:28:32.725Z,0.00
2019-03-16T04:29:32.656Z,0.00
2019-03-16T04:30:32.650Z,0.00
2019-03-16T04:31:32.633Z,0.00
2019-03-16T04:32:32.628Z,0.00
2019-03-16T04:33:32.611Z,0.00
2019-03-16T04:34:32.636Z,0.00
2019-03-16T04:35:32.592Z,0.00
2019-03-16T04:36:32.614Z,0.00
2019-03-16T04:37:32.571Z,0.00
2019-03-16T04:38:32.570Z,0.00
2019-03-16T04:39:32.548Z,0.00
2019-03-16T04:40:32.534Z,0.00
2019-03-16T04:41:32.560Z,0.00
2019-03-16T04:42:32.522Z,0.00
2019-03-16T04:43:32.556Z,0.00
2019-03-16T04:44:32.546Z,0.00
2019-03-16T04:45:32.484Z,0.00
2019-03-16T04:46:32.490Z,0.00
2019-03-16T04:47:32.468Z,0.00
2019-03-16T04:48:32.454Z,0.00
2019-03-16T04:49:32.451Z,0.00
2019-03-16T04:50:32.473Z,0.00
2019-03-16T04:51:32.423Z,0.00
2019-03-16T04:52:32.418Z,0.00
2019-03-16T04:53:32.417Z,0.00
2019-03-16T04:54:32.394Z,0.00
2019-03-16T04:55:32.382Z,0.00
2019-03-16T04:56:32.430Z,0.00
2019-03-16T04:57:32.450Z,0.00
2019-03-16T04:58:32.358Z,0.00
2019-03-16T04:59:32.353Z,0.00
2019-03-16T05:00:32.349Z,0.00
2019-03-16T05:01:32.362Z,0.00
2019-03-16T05:02:32.316Z,0.00
2019-03-16T05:03:32.293Z,4.00
2019-03-16T05:04:41.895Z,4.00
2019-03-16T05:05:33.272Z,4.00
2019-03-16T05:06:32.315Z,4.00
2019-03-16T05:07:32.300Z,4.00
2019-03-16T05:08:32.251Z,8.00
2019-03-16T05:09:32.298Z,8.00
2019-03-16T05:10:32.228Z,8.00
2019-03-16T05:11:32.216Z,12.00
2019-03-16T05:12:32.202Z,16.00
2019-03-16T05:13:32.246Z,16.00
2019-03-16T05:14:32.241Z,20.00
2019-03-16T05:15:32.167Z,28.00
2019-03-16T05:16:32.161Z,32.00
2019-03-16T05:17:32.158Z,40.00
2019-03-16T05:18:32.135Z,52.00
2019-03-16T05:19:32.146Z,64.00
2019-03-16T05:20:32.156Z,80.00
2019-03-16T05:21:32.124Z,96.00
2019-03-16T05:22:32.089Z,116.00
2019-03-16T05:23:32.084Z,140.00
2019-03-16T05:24:32.100Z,160.00
2019-03-16T05:25:32.156Z,188.00
2019-03-16T05:26:32.058Z,216.00
2019-03-16T05:27:32.068Z,248.00
2019-03-16T05:28:32.036Z,276.00
2019-03-16T05:29:32.101Z,308.00
2019-03-16T05:30:32.028Z,340.00
2019-03-16T05:31:32.047Z,372.00
2019-03-16T05:32:32.018Z,408.00
2019-03-16T05:33:31.974Z,448.00
2019-03-16T05:34:31.962Z,492.00
2019-03-16T05:35:31.999Z,544.00
2019-03-16T05:36:31.969Z,596.00
2019-03-16T05:37:31.933Z,664.00
2019-03-16T05:38:31.924Z,728.00
2019-03-16T05:39:31.918Z,792.00
2019-03-16T05:40:31.903Z,856.00
2019-03-16T05:41:31.935Z,924.00
2019-03-16T05:42:31.902Z,984.00
2019-03-16T05:43:31.870Z,1048.00
2019-03-16T05:44:31.853Z,1108.00
2019-03-16T05:45:31.846Z,1172.00
2019-03-16T05:46:31.839Z,1232.00
2019-03-16T05:47:31.867Z,1292.00
2019-03-16T05:48:31.815Z,1356.00
2019-03-16T05:49:31.831Z,1420.00
2019-03-16T05:50:31.805Z,1488.00
2019-03-16T05:51:31.784Z,1556.00
2019-03-16T05:52:31.773Z,1624.00
2019-03-16T05:53:31.824Z,1700.00
2019-03-16T05:54:31.754Z,1784.00
2019-03-16T05:55:31.749Z,1864.00
2019-03-16T05:56:31.734Z,1944.00
2019-03-16T05:57:31.736Z,2016.00
2019-03-16T05:58:31.713Z,2080.00
2019-03-16T05:59:31.731Z,2156.00
2019-03-16T06:00:31.687Z,2244.00
2019-03-16T06:01:31.683Z,2332.00
2019-03-16T06:02:31.661Z,2416.00
2019-03-16T06:03:31.686Z,2496.00
2019-03-16T06:04:31.652Z,2572.00
2019-03-16T06:05:31.682Z,2640.00
2019-03-16T06:06:31.625Z,2704.00
2019-03-16T06:07:31.661Z,2760.00
2019-03-16T06:08:31.660Z,2824.00
2019-03-16T06:09:31.587Z,2888.00
2019-03-16T06:10:31.584Z,2944.00
2019-03-16T06:11:31.566Z,3008.00
2019-03-16T06:12:31.566Z,3068.00
2019-03-16T06:13:31.580Z,3132.00
2019-03-16T06:14:31.546Z,3180.00
2019-03-16T06:15:31.524Z,3228.00
2019-03-16T06:16:31.546Z,3276.00
2019-03-16T06:17:31.497Z,3324.00
2019-03-16T06:18:31.496Z,3372.00
2019-03-16T06:19:31.487Z,3420.00
2019-03-16T06:20:31.481Z,3472.00
2019-03-16T06:21:31.479Z,3516.00
2019-03-16T06:22:31.491Z,3564.00
2019-03-16T06:23:31.443Z,3616.00
2019-03-16T06:24:31.428Z,3660.00
2019-03-16T06:25:31.423Z,3708.00
2019-03-16T06:26:31.411Z,3756.00
2019-03-16T06:27:31.395Z,3784.00
2019-03-16T06:28:31.439Z,3816.00
2019-03-16T06:29:31.373Z,3860.00
2019-03-16T06:30:31.385Z,3896.00
2019-03-16T06:31:31.351Z,3940.00
2019-03-16T06:32:31.342Z,3984.00
2019-03-16T06:33:31.328Z,4012.00
2019-03-16T06:34:31.482Z,4028.00
2019-03-16T06:35:31.375Z,4060.00
2019-03-16T06:36:31.304Z,4108.00
2019-03-16T06:37:31.294Z,4160.00
2019-03-16T06:38:31.290Z,4200.00
2019-03-16T06:39:31.272Z,4240.00
2019-03-16T06:40:31.302Z,4280.00
2019-03-16T06:41:31.250Z,4312.00
2019-03-16T06:42:31.235Z,4356.00
2019-03-16T06:43:31.222Z,4392.00
2019-03-16T06:44:31.221Z,4432.00
2019-03-16T06:45:31.209Z,4480.00
2019-03-16T06:46:31.319Z,4540.00
2019-03-16T06:47:31.185Z,4612.00
2019-03-16T06:48:31.175Z,4716.00
2019-03-16T06:49:31.178Z,4836.00
2019-03-16T06:50:31.150Z,6204.00
2019-03-16T06:51:31.136Z,11776.00
2019-03-16T06:52:31.180Z,19968.00
2019-03-16T06:53:31.116Z,25344.00
2019-03-16T06:54:31.110Z,27168.00
2019-03-16T06:55:31.098Z,27008.00
2019-03-16T06:56:31.082Z,27712.00
2019-03-16T06:57:31.112Z,29632.00
2019-03-16T06:58:31.064Z,30784.00
2019-03-16T06:59:31.071Z,30112.00
2019-03-16T07:00:31.039Z,29536.00
2019-03-16T07:01:31.028Z,33664.00
2019-03-16T07:02:31.018Z,42496.00
2019-03-16T07:03:31.056Z,34400.00
2019-03-16T07:04:30.993Z,33344.00
2019-03-16T07:05:38.417Z,34560.00
2019-03-16T07:06:31.969Z,29280.00
2019-03-16T07:07:30.964Z,29280.00
2019-03-16T07:08:30.951Z,42368.00
2019-03-16T07:09:30.982Z,49280.00
2019-03-16T07:10:30.930Z,76000.00
2019-03-16T07:11:30.917Z,85984.00
2019-03-16T07:12:30.922Z,66976.00
2019-03-16T07:13:30.900Z,66592.00
2019-03-16T07:14:30.948Z,67456.00
2019-03-16T07:15:30.876Z,69984.00
2019-03-16T07:16:30.867Z,75232.00
2019-03-16T07:17:30.853Z,75904.00
2019-03-16T07:18:30.855Z,72320.00
2019-03-16T07:19:33.762Z,72128.00
2019-03-16T07:20:30.857Z,75296.00
2019-03-16T07:21:30.815Z,77728.00
2019-03-16T07:22:30.798Z,80096.00
2019-03-16T07:23:30.849Z,82080.00
2019-03-16T07:24:30.821Z,83904.00
2019-03-16T07:25:30.783Z,82816.00
2019-03-16T07:26:30.754Z,82144.00
2019-03-16T07:27:30.764Z,81344.00
2019-03-16T07:28:30.732Z,86464.00
2019-03-16T07:29:30.723Z,90144.00
2019-03-16T07:30:30.834Z,92480.00
2019-03-16T07:31:30.702Z,90016.00
2019-03-16T07:32:30.691Z,89888.00
2019-03-16T07:33:30.687Z,91200.00
2019-03-16T07:34:30.668Z,90048.00
2019-03-16T07:35:30.701Z,87040.00
2019-03-16T07:36:30.648Z,87072.00
2019-03-16T07:37:30.634Z,92960.00
2019-03-16T07:38:30.662Z,93056.00
2019-03-16T07:39:30.611Z,91296.00
2019-03-16T07:40:30.703Z,89088.00
2019-03-16T07:41:37.650Z,90336.00
2019-03-16T07:42:30.603Z,99456.00
2019-03-16T07:43:30.569Z,99840.00
2019-03-16T07:44:30.596Z,97472.00
2019-03-16T07:45:30.550Z,95264.00
2019-03-16T07:46:31.756Z,98144.00
2019-03-16T07:47:30.522Z,98400.00
2019-03-16T07:48:30.519Z,95968.00
2019-03-16T07:49:30.566Z,97568.00
2019-03-16T07:50:30.508Z,93824.00
2019-03-16T07:51:30.500Z,91072.00
2019-03-16T07:52:30.474Z,95200.00
2019-03-16T07:53:30.482Z,96928.00
2019-03-16T07:54:31.401Z,94560.00
2019-03-16T07:55:30.502Z,91168.00
2019-03-16T07:57:40.562Z,95168.00
2019-03-16T07:58:39.165Z,93152.00
2019-03-16T07:59:39.885Z,90336.00
2019-03-16T08:01:47.891Z,90432.00
2019-03-16T08:02:47.847Z,88736.00
2019-03-16T08:03:48.563Z,92448.00
2019-03-16T08:04:47.852Z,93280.00
2019-03-16T08:05:54.921Z,92000.00
2019-03-16T08:06:47.843Z,92032.00
2019-03-16T08:07:47.800Z,90720.00
2019-03-16T08:08:50.598Z,92128.00
2019-03-16T08:09:48.567Z,94176.00
2019-03-16T08:12:53.266Z,96672.00
2019-03-16T08:14:00.115Z,91264.00
2019-03-16T08:16:32.431Z,78048.00
2019-03-16T08:22:03.511Z,93760.00
2019-03-16T08:23:10.102Z,92064.00
2019-03-16T08:24:10.171Z,92640.00
2019-03-16T08:25:08.232Z,93952.00
2019-03-16T08:26:11.949Z,92736.00
2019-03-16T08:29:34.135Z,89824.00
2019-03-16T08:30:44.340Z,89664.00
2019-03-16T08:34:10.800Z,92928.00
2019-03-16T08:35:00.406Z,90496.00
2019-03-16T08:36:18.384Z,87328.00
2019-03-16T08:36:58.989Z,84288.00
2019-03-16T08:40:42.626Z,97600.00
2019-03-16T08:43:59.297Z,88448.00
2019-03-16T08:45:05.337Z,88064.00
2019-03-16T08:48:22.656Z,89824.00
2019-03-16T08:52:27.250Z,89280.00
2019-03-16T08:54:55.350Z,95552.00
2019-03-16T08:55:55.386Z,94176.00
2019-03-16T08:56:57.989Z,89440.00
2019-03-16T08:57:43.419Z,92608.00
2019-03-16T08:58:46.144Z,90208.00
2019-03-16T09:00:46.706Z,89856.00
2019-03-16T09:01:54.307Z,89504.00
2019-03-16T09:04:11.429Z,92800.00
2019-03-16T09:06:17.097Z,90400.00
2019-03-16T09:07:31.115Z,90816.00
2019-03-16T09:08:16.701Z,94208.00
2019-03-16T09:09:39.147Z,96672.00
2019-03-16T09:10:16.558Z,93920.00
2019-03-16T09:11:17.104Z,97440.00
2019-03-16T09:12:16.554Z,93248.00
2019-03-16T09:13:16.541Z,95488.00
2019-03-16T09:15:25.373Z,99104.00
2019-03-16T09:16:25.264Z,94400.00
2019-03-16T09:17:25.255Z,97920.00
2019-03-16T09:18:46.302Z,95840.00
2019-03-16T09:19:25.230Z,94944.00
2019-03-16T09:20:25.230Z,97856.00
2019-03-16T09:21:25.229Z,97376.00
2019-03-16T09:22:25.198Z,97952.00
2019-03-16T09:23:25.167Z,97920.00
2019-03-16T09:24:25.141Z,103744.00
2019-03-16T09:25:25.179Z,107936.00
2019-03-16T09:26:25.210Z,105312.00
2019-03-16T09:27:31.161Z,103904.00
2019-03-16T09:28:34.148Z,102368.00
2019-03-16T09:29:25.143Z,103232.00
2019-03-16T09:30:25.219Z,102848.00
2019-03-16T09:31:25.080Z,103520.00
2019-03-16T09:32:25.086Z,107616.00
2019-03-16T09:33:26.277Z,108608.00
2019-03-16T09:34:25.023Z,106912.00
2019-03-16T09:35:25.009Z,106688.00
2019-03-16T09:36:25.011Z,110752.00
2019-03-16T09:37:24.995Z,110880.00
2019-03-16T09:38:25.018Z,109952.00
2019-03-16T09:39:24.966Z,110336.00
2019-03-16T09:40:24.954Z,115680.00
2019-03-16T09:41:24.949Z,117280.00
2019-03-16T09:42:24.935Z,119456.00
2019-03-16T09:43:24.931Z,119104.00
2019-03-16T09:44:24.949Z,114624.00
2019-03-16T09:45:24.916Z,118240.00
2019-03-16T09:46:24.898Z,117408.00
2019-03-16T09:47:24.883Z,114848.00
2019-03-16T09:48:24.881Z,116224.00
2019-03-16T09:49:24.853Z,122272.00
2019-03-16T09:50:24.884Z,123072.00
2019-03-16T09:51:24.865Z,118272.00
2019-03-16T09:52:24.881Z,117120.00
2019-03-16T09:53:24.819Z,113888.00
2019-03-16T09:54:24.803Z,113056.00
2019-03-16T09:55:24.914Z,114976.00
2019-03-16T09:56:24.783Z,119904.00
2019-03-16T09:57:24.772Z,116416.00
2019-03-16T09:58:31.225Z,115840.00
2019-03-16T09:59:25.763Z,113888.00
2019-03-16T10:00:24.739Z,112480.00
2019-03-16T10:01:24.721Z,116160.00
2019-03-16T10:02:24.718Z,118016.00
2019-03-16T10:03:24.706Z,116672.00
2019-03-16T10:04:24.727Z,114720.00
2019-03-16T10:05:24.689Z,114496.00
2019-03-16T10:06:24.667Z,116256.00
2019-03-16T10:07:24.659Z,113856.00
2019-03-16T10:08:24.653Z,114336.00
2019-03-16T10:09:24.635Z,114816.00
2019-03-16T10:10:24.666Z,115936.00
2019-03-16T10:11:24.630Z,120416.00
2019-03-16T10:12:24.610Z,124064.00
2019-03-16T10:13:24.601Z,126048.00
2019-03-16T10:14:24.625Z,125856.00
2019-03-16T10:15:24.620Z,126880.00
2019-03-16T10:16:24.597Z,126336.00
2019-03-16T10:17:24.561Z,122368.00
2019-03-16T10:18:24.538Z,121024.00
2019-03-16T10:19:24.531Z,124768.00
2019-03-16T10:20:24.539Z,126432.00
2019-03-16T10:21:30.181Z,124064.00
2019-03-16T10:22:24.503Z,122208.00
2019-03-16T10:23:24.493Z,123680.00
2019-03-16T10:24:24.484Z,124480.00
2019-03-16T10:25:24.476Z,122880.00
2019-03-16T10:26:24.624Z,117536.00
2019-03-16T10:27:24.502Z,115968.00
2019-03-16T10:28:24.432Z,116608.00
2019-03-16T10:29:24.423Z,114336.00
2019-03-16T10:30:24.425Z,121728.00
2019-03-16T10:31:24.394Z,121856.00
2019-03-16T10:32:24.388Z,120224.00
2019-03-16T10:33:24.408Z,124288.00
2019-03-16T10:34:24.372Z,126112.00
2019-03-16T10:35:24.371Z,118048.00
2019-03-16T10:36:24.339Z,115712.00
2019-03-16T10:37:24.329Z,114656.00
2019-03-16T10:38:24.316Z,114816.00
2019-03-16T10:39:24.342Z,118400.00
2019-03-16T10:40:24.299Z,120448.00
2019-03-16T10:41:24.304Z,122144.00
2019-03-16T10:42:24.271Z,119392.00
2019-03-16T10:43:24.261Z,123008.00
2019-03-16T10:44:24.251Z,118624.00
2019-03-16T10:45:24.275Z,124480.00
2019-03-16T10:46:24.228Z,125664.00
2019-03-16T10:47:24.237Z,125728.00
2019-03-16T10:48:24.211Z,121216.00
2019-03-16T10:49:24.203Z,122976.00
2019-03-16T10:50:24.188Z,117600.00
2019-03-16T10:51:24.216Z,118336.00
2019-03-16T10:52:24.159Z,120800.00
2019-03-16T10:53:24.167Z,119040.00
2019-03-16T10:54:24.140Z,118400.00
2019-03-16T10:55:24.137Z,123328.00
2019-03-16T10:56:24.128Z,121280.00
2019-03-16T10:57:24.178Z,117824.00
2019-03-16T10:58:24.173Z,118976.00
2019-03-16T10:59:24.101Z,123424.00
2019-03-16T11:00:24.072Z,124736.00
2019-03-16T11:01:24.071Z,125824.00
2019-03-16T11:02:24.052Z,123680.00
2019-03-16T11:03:24.082Z,123456.00
2019-03-16T11:04:24.031Z,122304.00
2019-03-16T11:05:24.032Z,122656.00
2019-03-16T11:06:24.024Z,128320.00
2019-03-16T11:07:24.039Z,127200.00
2019-03-16T11:08:23.986Z,126400.00
2019-03-16T11:09:26.654Z,124192.00
2019-03-16T11:10:23.966Z,125632.00
2019-03-16T11:11:23.954Z,124768.00
2019-03-16T11:12:23.961Z,124096.00
2019-03-16T11:13:23.966Z,126464.00
2019-03-16T11:14:23.922Z,118592.00
2019-03-16T11:15:23.908Z,131328.00
2019-03-16T11:16:23.901Z,125024.00
2019-03-16T11:17:23.892Z,115680.00
2019-03-16T11:18:23.889Z,124896.00
2019-03-16T11:19:23.899Z,118880.00
2019-03-16T11:20:23.949Z,122816.00
2019-03-16T11:21:23.849Z,125568.00
2019-03-16T11:22:23.843Z,119648.00
2019-03-16T11:23:23.824Z,121056.00
2019-03-16T11:24:23.829Z,116928.00
2019-03-16T11:25:23.801Z,115360.00
2019-03-16T11:26:23.832Z,113760.00
2019-03-16T11:27:23.793Z,114400.00
2019-03-16T11:28:23.775Z,113632.00
2019-03-16T11:29:30.581Z,123904.00
2019-03-16T11:30:23.747Z,123232.00
2019-03-16T11:31:23.818Z,119968.00
2019-03-16T11:32:23.723Z,123552.00
2019-03-16T11:33:23.713Z,129184.00
2019-03-16T11:34:23.708Z,132864.00
2019-03-16T11:35:23.695Z,118240.00
2019-03-16T11:36:23.673Z,118720.00
2019-03-16T11:37:23.714Z,105504.00
2019-03-16T11:38:23.711Z,98912.00
2019-03-16T11:39:32.246Z,99776.00
2019-03-16T11:40:23.641Z,100224.00
2019-03-16T11:41:24.442Z,83904.00
2019-03-16T11:42:23.654Z,74144.00
2019-03-16T11:43:38.460Z,103808.00
2019-03-16T11:44:23.606Z,90720.00
2019-03-16T11:45:23.597Z,97728.00
2019-03-16T11:46:23.570Z,93408.00
2019-03-16T11:47:23.568Z,88480.00
2019-03-16T11:48:29.126Z,82400.00
2019-03-16T11:49:23.535Z,84704.00
2019-03-16T11:50:23.523Z,90688.00
2019-03-16T11:51:23.599Z,89792.00
2019-03-16T11:52:23.501Z,90464.00
2019-03-16T11:53:52.506Z,93728.00
2019-03-16T11:54:23.489Z,92928.00
2019-03-16T11:55:23.480Z,91488.00
2019-03-16T11:56:23.456Z,91200.00
2019-03-16T11:57:23.463Z,89728.00
2019-03-16T11:58:23.650Z,76544.00
2019-03-16T11:59:23.429Z,78592.00
2019-03-16T12:00:23.416Z,84736.00
2019-03-16T12:01:23.404Z,87680.00
2019-03-16T12:02:32.095Z,84416.00
2019-03-16T12:03:30.617Z,79136.00
2019-03-16T12:05:33.443Z,77728.00
2019-03-16T12:09:44.740Z,76448.00
2019-03-16T12:10:34.685Z,83200.00
2019-03-16T12:11:34.710Z,82304.00
2019-03-16T12:13:37.960Z,94048.00
2019-03-16T12:14:49.555Z,98208.00
2019-03-16T12:17:40.133Z,106304.00
2019-03-16T12:19:44.865Z,105632.00
2019-03-16T12:21:52.589Z,107168.00
2019-03-16T12:25:10.822Z,104544.00
2019-03-16T12:27:41.127Z,108800.00
2019-03-16T12:28:29.882Z,108768.00
2019-03-16T12:30:35.447Z,104896.00
2019-03-16T12:33:32.764Z,111456.00
2019-03-16T12:34:10.491Z,109856.00
2019-03-16T12:36:18.255Z,103328.00
2019-03-16T12:37:20.882Z,98304.00
2019-03-16T12:39:28.003Z,95264.00
2019-03-16T12:40:34.239Z,100288.00
2019-03-16T12:41:27.044Z,98304.00
2019-03-16T12:44:22.866Z,88064.00
2019-03-16T12:45:22.725Z,86496.00
2019-03-16T12:46:22.672Z,79200.00
2019-03-16T12:47:22.751Z,76672.00
2019-03-16T12:48:22.610Z,70720.00
2019-03-16T12:49:22.586Z,74368.00
2019-03-16T12:50:22.629Z,69728.00
2019-03-16T12:51:22.561Z,70208.00
2019-03-16T12:52:22.552Z,69664.00
2019-03-16T12:53:22.572Z,72896.00
2019-03-16T12:54:22.530Z,75232.00
2019-03-16T12:55:22.516Z,80800.00
2019-03-16T12:56:22.549Z,81024.00
2019-03-16T12:57:29.507Z,79040.00
2019-03-16T12:58:23.510Z,78784.00
2019-03-16T12:59:22.477Z,83136.00
2019-03-16T13:00:22.466Z,84000.00
2019-03-16T13:01:23.648Z,85056.00
2019-03-16T13:02:22.489Z,80928.00
2019-03-16T13:03:22.440Z,77024.00
2019-03-16T13:04:22.434Z,70144.00
2019-03-16T13:05:22.408Z,64064.00
2019-03-16T13:06:22.396Z,65088.00
2019-03-16T13:07:22.386Z,64960.00
2019-03-16T13:08:22.409Z,65184.00
2019-03-16T13:09:24.726Z,66112.00
2019-03-16T13:10:29.506Z,62752.00
2019-03-16T13:11:22.413Z,63296.00
2019-03-16T13:12:22.424Z,57664.00
2019-03-16T13:13:22.366Z,57312.00